createdAt,value
2023-03-02T00:02:04.028Z,328.90
2023-03-02T00:04:37.914Z,336.30
2023-03-02T00:07:09.799Z,343.50
2023-03-02T00:09:41.539Z,334.30
2023-03-02T00:12:09.857Z,332.80
2023-03-02T00:14:38.170Z,335.40
2023-03-02T00:17:10.528Z,345.70
2023-03-02T00:19:44.779Z,336.80
2023-03-02T00:22:12.750Z,332.10
2023-03-02T00:24:41.143Z,328.00
2023-03-02T00:27:10.048Z,347.10
2023-03-02T00:29:38.309Z,292.60
2023-03-02T00:32:06.708Z,292.70
2023-03-02T00:34:34.761Z,283.50
2023-03-02T00:37:02.998Z,292.90
2023-03-02T00:39:31.207Z,331.50
2023-03-02T00:42:02.352Z,337.20
2023-03-02T00:44:33.032Z,340.20
2023-03-02T00:47:01.299Z,330.70
2023-03-02T00:49:29.655Z,307.30
2023-03-02T00:51:57.811Z,282.70
2023-03-02T00:54:26.016Z,289.00
2023-03-02T00:56:54.368Z,285.60
2023-03-02T00:59:29.182Z,313.90
2023-03-02T01:02:11.389Z,315.10
2023-03-02T01:04:46.350Z,311.80
2023-03-02T01:07:20.773Z,312.30
2023-03-02T06:02:39.802Z,242.10
2023-03-02T06:05:22.068Z,227.50
2023-03-02T06:07:51.230Z,215.00
2023-03-02T06:10:25.198Z,218.90
2023-03-02T06:12:54.632Z,221.40
2023-03-02T06:15:21.676Z,214.10
2023-03-02T06:17:53.021Z,206.50
2023-03-02T06:20:21.641Z,213.30
2023-03-02T06:22:48.651Z,211.90
2023-03-02T06:25:20.824Z,204.40
2023-03-02T06:27:52.960Z,211.70
2023-03-02T06:30:22.622Z,203.50
2023-03-02T06:32:51.527Z,213.80
2023-03-02T06:35:20.982Z,217.20
2023-03-02T06:37:47.887Z,232.40
2023-03-02T06:40:16.990Z,241.90
2023-03-02T06:42:48.367Z,231.20
2023-03-02T06:45:14.950Z,224.60
2023-03-02T06:47:41.664Z,226.90
2023-03-02T06:50:09.412Z,243.50
2023-03-02T06:52:35.999Z,240.50
2023-03-02T06:55:06.205Z,240.40
2023-03-02T06:57:33.312Z,244.30
2023-03-02T07:00:03.592Z,232.90
2023-03-02T07:02:30.272Z,221.40
2023-03-02T07:04:59.306Z,225.70
2023-03-02T07:07:25.949Z,227.00
2023-03-02T07:10:00.313Z,233.50
2023-03-02T07:12:29.092Z,221.70
2023-03-02T07:15:00.168Z,221.30
2023-03-02T07:17:29.365Z,199.00
2023-03-02T07:19:59.477Z,206.30
2023-03-02T07:22:26.058Z,204.80
2023-03-02T07:24:57.291Z,213.00
2023-03-02T07:27:26.314Z,153.40
2023-03-02T07:29:55.482Z,207.20
2023-03-02T07:32:26.867Z,208.30
2023-03-02T07:34:56.450Z,197.10
2023-03-02T07:37:22.954Z,199.50
2023-03-02T07:39:54.400Z,182.70
2023-03-02T07:42:21.295Z,144.10
2023-03-02T07:44:56.662Z,180.50
2023-03-02T07:47:23.618Z,177.80
2023-03-02T07:49:50.277Z,170.40
2023-03-02T07:52:20.116Z,179.60
2023-03-02T07:54:49.275Z,164.40
2023-03-02T07:57:20.941Z,163.70
2023-03-02T07:59:47.760Z,152.30
2023-03-02T08:02:19.861Z,147.20
2023-03-02T08:04:57.048Z,162.00
2023-03-02T08:07:25.865Z,157.00
2023-03-02T08:09:52.657Z,159.20
2023-03-02T08:12:22.646Z,143.60
2023-03-02T08:14:49.593Z,155.90
2023-03-02T08:17:18.828Z,165.40
2023-03-02T08:19:51.306Z,152.00
2023-03-02T08:22:18.046Z,155.00
2023-03-02T08:24:45.006Z,158.90
2023-03-02T08:27:15.858Z,152.00
2023-03-02T08:29:42.577Z,149.80
2023-03-02T08:32:14.722Z,156.40
2023-03-02T08:34:42.420Z,147.00
2023-03-02T08:37:11.262Z,147.70
2023-03-02T08:39:40.160Z,142.50
2023-03-02T08:42:09.048Z,138.70
2023-03-02T08:44:40.673Z,140.60
2023-03-02T08:47:09.869Z,145.40
2023-03-02T08:49:39.779Z,139.30
2023-03-02T08:52:06.477Z,148.00
2023-03-02T08:54:40.022Z,149.30
2023-03-02T08:57:14.049Z,130.20
2023-03-02T08:59:45.605Z,140.10
2023-03-02T09:02:12.471Z,141.30
2023-03-02T09:04:45.980Z,129.00
2023-03-02T09:07:16.694Z,135.10
2023-03-02T09:09:45.710Z,138.30
2023-03-02T09:12:14.997Z,128.10
2023-03-02T09:14:43.931Z,138.10
2023-03-02T09:17:12.294Z,130.10
2023-03-02T09:19:44.658Z,142.20
2023-03-02T09:22:16.342Z,137.20
2023-03-02T09:24:45.686Z,140.10
2023-03-02T09:27:14.913Z,128.00
2023-03-02T09:29:43.521Z,135.60
2023-03-02T09:32:11.292Z,138.10
2023-03-02T09:34:45.214Z,133.90
2023-03-02T09:37:19.327Z,131.00
2023-03-02T09:39:45.905Z,129.00
2023-03-02T09:42:27.104Z,137.50
2023-03-02T09:45:24.281Z,135.50
2023-03-02T09:48:14.126Z,143.20
2023-03-02T09:50:59.997Z,138.20
2023-03-02T09:53:38.180Z,139.90
2023-03-02T09:56:15.497Z,132.50
2023-03-02T09:58:57.422Z,128.10
2023-03-02T10:01:40.893Z,98.60
2023-03-02T10:04:16.198Z,132.70
2023-03-02T10:06:42.910Z,139.80
2023-03-02T10:09:10.267Z,136.50
2023-03-02T10:11:49.830Z,123.00
2023-03-02T10:14:28.734Z,124.10
2023-03-02T10:17:26.904Z,129.20
2023-03-02T10:20:01.903Z,130.40
2023-03-02T10:22:34.613Z,123.70
2023-03-02T10:25:22.517Z,122.40
2023-03-02T10:28:03.342Z,123.70
2023-03-02T10:30:36.507Z,123.70
2023-03-02T10:33:13.584Z,124.20
2023-03-02T10:35:48.540Z,128.00
2023-03-02T10:38:22.949Z,118.90
2023-03-02T10:40:59.123Z,151.20
2023-03-02T10:43:36.428Z,126.70
2023-03-02T10:46:10.351Z,122.70
2023-03-02T10:49:01.170Z,124.80
2023-03-02T10:51:44.415Z,127.60
2023-03-02T10:54:16.376Z,127.10
2023-03-02T10:56:55.009Z,114.70
2023-03-02T10:59:44.881Z,121.60
2023-03-02T11:02:22.634Z,123.80
2023-03-02T11:05:20.809Z,121.20
2023-03-02T11:07:57.948Z,112.30
2023-03-02T11:10:31.303Z,120.60
2023-03-02T11:13:02.073Z,126.10
2023-03-02T11:15:31.453Z,119.10
2023-03-02T11:18:04.119Z,122.00
2023-03-02T11:23:15.410Z,115.50
2023-03-02T11:25:54.513Z,112.00
2023-03-02T11:28:39.529Z,114.60
2023-03-02T11:31:12.400Z,116.80
2023-03-02T11:34:15.607Z,107.60
2023-03-02T11:36:58.345Z,104.40
2023-03-02T11:39:34.298Z,111.90
2023-03-02T11:42:06.542Z,110.80
2023-03-02T11:44:35.888Z,110.90
2023-03-02T11:47:04.979Z,101.90
2023-03-02T11:49:45.089Z,103.90
2023-03-02T11:52:33.252Z,116.90
2023-03-02T11:55:17.358Z,116.80
2023-03-02T11:57:49.125Z,112.60
2023-03-02T12:00:32.925Z,113.20
2023-03-02T12:03:18.191Z,106.90
2023-03-02T12:05:53.418Z,109.30
2023-03-02T12:08:20.165Z,81.60
2023-03-02T12:11:17.735Z,73.10
2023-03-02T12:13:58.904Z,79.40
2023-03-02T12:16:35.111Z,88.00
2023-03-02T12:19:17.278Z,76.90
2023-03-02T12:21:54.872Z,83.30
2023-03-02T12:24:28.033Z,77.00
2023-03-02T12:27:14.991Z,90.40
2023-03-02T12:29:44.235Z,75.00
2023-03-02T12:32:20.568Z,83.80
2023-03-02T12:34:59.281Z,83.50
2023-03-02T12:37:30.016Z,95.30
2023-03-02T12:40:34.285Z,103.00
2023-03-02T12:43:19.501Z,100.80
2023-03-02T12:46:10.418Z,109.90
2023-03-02T12:48:51.316Z,113.80
2023-03-02T12:51:22.139Z,117.80
2023-03-02T12:54:00.667Z,114.40
2023-03-02T12:56:27.501Z,114.40
2023-03-02T12:58:58.423Z,114.90
2023-03-02T13:01:34.248Z,115.90
2023-03-02T13:04:05.515Z,113.50
2023-03-02T13:06:38.473Z,115.40
2023-03-02T13:37:20.974Z,88.10
2023-03-02T13:39:57.524Z,83.80
2023-03-02T13:42:37.688Z,91.80
2023-03-02T13:45:23.015Z,96.10
2023-03-02T13:47:52.636Z,93.60
2023-03-02T13:50:23.198Z,83.60
2023-03-02T13:52:55.830Z,77.90
2023-03-02T13:55:25.676Z,84.90
2023-03-02T13:57:57.494Z,91.90
2023-03-02T14:00:31.963Z,100.10
2023-03-02T14:03:30.377Z,109.40
2023-03-02T14:05:58.455Z,104.80
2023-03-02T14:08:27.596Z,98.60
2023-03-02T14:10:58.926Z,110.90
2023-03-02T14:13:42.377Z,101.30
2023-03-02T14:16:12.616Z,112.70
2023-03-02T14:18:44.269Z,104.50
2023-03-02T14:21:21.773Z,111.60
2023-03-02T14:23:48.707Z,105.10
2023-03-02T14:26:19.568Z,108.30
2023-03-02T14:28:53.563Z,106.90
2023-03-02T14:31:28.797Z,117.60
2023-03-02T14:33:55.250Z,116.70
2023-03-02T14:36:34.197Z,109.60
2023-03-02T14:39:17.732Z,107.80
2023-03-02T14:41:54.089Z,108.00
2023-03-02T14:44:26.088Z,99.90
2023-03-02T14:46:52.972Z,101.40
2023-03-02T14:49:20.107Z,96.70
2023-03-02T14:51:58.365Z,95.70
2023-03-02T14:54:35.869Z,101.20
2023-03-02T14:57:16.321Z,93.70
2023-03-02T14:59:45.145Z,100.50
2023-03-02T15:02:24.247Z,99.00
2023-03-02T15:04:55.788Z,102.80
2023-03-02T15:07:26.755Z,100.80
2023-03-02T15:09:57.190Z,97.20
2023-03-02T15:12:24.329Z,107.50
2023-03-02T15:14:53.382Z,99.50
2023-03-02T15:17:20.210Z,109.80
2023-03-02T15:19:49.296Z,104.10
2023-03-02T15:22:15.868Z,109.90
2023-03-02T15:24:43.261Z,103.80
2023-03-02T15:27:10.199Z,101.90
2023-03-02T15:29:43.354Z,107.00
2023-03-02T15:32:10.275Z,109.90
2023-03-02T15:34:39.581Z,110.90
2023-03-02T15:37:06.910Z,103.50
2023-03-02T15:39:36.005Z,110.00
2023-03-02T15:42:02.909Z,108.40
2023-03-02T15:44:32.814Z,109.10
2023-03-02T15:47:02.068Z,111.90
2023-03-02T15:49:33.356Z,106.50
2023-03-02T15:52:02.380Z,102.10
2023-03-02T15:54:31.300Z,104.90
2023-03-02T15:57:00.417Z,101.90
2023-03-02T15:59:28.165Z,99.30
2023-03-02T16:01:58.813Z,100.50
2023-03-02T16:04:29.462Z,98.00
2023-03-02T16:06:58.781Z,100.90
2023-03-02T16:09:28.152Z,104.40
2023-03-02T16:11:59.610Z,99.90
2023-03-02T16:14:26.548Z,96.40
2023-03-02T16:16:57.956Z,100.90
2023-03-02T16:19:29.650Z,99.70
2023-03-02T16:21:58.757Z,93.40
2023-03-02T16:24:25.499Z,100.90
2023-03-02T16:26:52.752Z,99.80
2023-03-02T16:29:19.616Z,104.80
2023-03-02T16:31:46.584Z,100.80
2023-03-02T16:34:13.657Z,99.40
2023-03-02T16:36:41.458Z,98.50
2023-03-02T16:39:11.294Z,102.90
2023-03-02T16:41:39.410Z,108.40
2023-03-02T16:44:09.561Z,100.50
2023-03-02T16:46:38.665Z,115.20
2023-03-02T16:49:08.537Z,119.70
2023-03-02T16:51:37.815Z,113.40
2023-03-02T16:54:08.300Z,113.70
2023-03-02T16:56:41.111Z,104.20
2023-03-02T16:59:07.599Z,103.80
2023-03-02T17:01:39.006Z,107.90
2023-03-02T17:04:06.090Z,106.40
2023-03-02T17:06:34.953Z,108.40
2023-03-02T17:09:04.210Z,100.50
2023-03-02T17:11:33.223Z,98.00
2023-03-02T17:13:59.782Z,102.80
2023-03-02T17:16:31.210Z,99.30
2023-03-02T17:18:57.710Z,100.70
2023-03-02T17:21:28.786Z,102.80
2023-03-02T17:24:00.340Z,95.10
2023-03-02T17:26:29.505Z,100.10
2023-03-02T17:28:59.348Z,95.90
2023-03-02T17:31:26.093Z,90.50
2023-03-02T17:33:55.595Z,104.50
2023-03-02T17:36:22.042Z,102.40
2023-03-02T17:38:48.714Z,95.80
2023-03-02T17:41:17.642Z,99.00
2023-03-02T17:43:44.213Z,115.80
2023-03-02T17:46:22.654Z,111.60
2023-03-02T17:48:54.044Z,105.80
2023-03-02T17:51:24.374Z,87.40
2023-03-02T17:53:54.328Z,113.10
2023-03-02T17:56:25.700Z,116.50
2023-03-02T17:59:01.362Z,102.70
2023-03-02T18:01:31.984Z,98.20
2023-03-02T18:04:04.118Z,98.40
2023-03-02T18:06:35.443Z,113.20
2023-03-02T18:09:07.196Z,112.20
2023-03-02T18:11:40.680Z,115.60
2023-03-02T18:14:15.583Z,110.90
2023-03-02T18:16:45.016Z,108.10
2023-03-02T18:19:12.078Z,109.50
2023-03-02T18:21:41.897Z,108.40
2023-03-02T18:24:11.164Z,114.40
2023-03-02T18:26:43.236Z,116.10
2023-03-02T18:29:09.682Z,117.60
2023-03-02T18:31:43.103Z,126.80
2023-03-02T18:34:14.301Z,130.00
2023-03-02T18:36:46.164Z,141.80
2023-03-02T18:39:17.394Z,121.40
2023-03-02T18:41:49.412Z,114.00
2023-03-02T18:44:19.235Z,116.50
2023-03-02T18:46:48.428Z,118.30
2023-03-02T18:49:15.061Z,119.50
2023-03-02T18:51:42.661Z,112.50
2023-03-02T18:54:09.081Z,110.90
2023-03-02T18:56:39.895Z,109.90
2023-03-02T18:59:13.286Z,105.30
2023-03-02T19:01:40.243Z,105.80
2023-03-02T19:04:09.583Z,105.20
2023-03-02T19:06:38.350Z,111.50
2023-03-02T19:09:07.296Z,101.20
2023-03-02T19:11:36.900Z,105.80
2023-03-02T19:14:03.336Z,110.20
2023-03-02T19:16:29.972Z,116.70
2023-03-02T19:18:56.963Z,108.90
2023-03-02T19:21:23.866Z,108.10
2023-03-02T19:23:55.136Z,110.10
2023-03-02T19:26:26.435Z,111.30
2023-03-02T19:28:55.441Z,116.40
2023-03-02T19:31:23.441Z,114.50
2023-03-02T19:33:55.718Z,112.60
2023-03-02T19:36:22.361Z,113.10
2023-03-02T19:38:49.250Z,113.50
2023-03-02T19:41:19.884Z,119.70
2023-03-02T19:43:49.242Z,118.70
2023-03-02T19:46:19.633Z,121.30
2023-03-02T19:48:48.741Z,127.30
2023-03-02T19:51:15.970Z,131.10
2023-03-02T19:53:46.350Z,140.40
2023-03-02T19:56:14.966Z,151.10
2023-03-02T19:58:48.672Z,146.80
2023-03-02T20:01:20.956Z,155.70
2023-03-02T20:03:52.384Z,164.40
2023-03-02T20:06:21.650Z,158.50
2023-03-02T20:08:51.614Z,153.80
2023-03-02T20:11:20.579Z,152.40
2023-03-02T20:13:50.002Z,148.00
2023-03-02T20:16:18.859Z,157.00
2023-03-02T20:18:51.957Z,130.40
2023-03-02T20:21:25.537Z,146.70
2023-03-02T20:23:54.736Z,134.70
2023-03-02T20:26:26.663Z,134.10
2023-03-02T20:29:00.321Z,141.80
2023-03-02T20:31:31.656Z,143.50
2023-03-02T20:34:05.115Z,145.40
2023-03-02T20:36:33.806Z,140.20
2023-03-02T20:39:05.516Z,136.50
2023-03-02T20:41:35.772Z,172.10
2023-03-02T20:44:05.903Z,172.80
2023-03-02T20:46:37.246Z,155.20
2023-03-02T20:49:09.063Z,149.00
2023-03-02T20:51:39.561Z,150.00
2023-03-02T20:54:14.270Z,147.00
2023-03-02T20:56:44.019Z,153.20
2023-03-02T20:59:12.007Z,144.70
2023-03-02T21:01:43.567Z,150.40
2023-03-02T21:04:14.146Z,163.40
2023-03-02T21:06:41.045Z,163.30
2023-03-02T21:09:09.318Z,165.50
2023-03-02T21:11:37.285Z,229.20
2023-03-02T21:14:06.532Z,228.90
2023-03-02T21:16:37.889Z,242.80
2023-03-02T21:19:08.951Z,190.20
2023-03-02T21:21:41.889Z,180.70
2023-03-02T21:24:17.693Z,169.10
2023-03-02T21:26:46.814Z,163.90
2023-03-02T21:29:16.520Z,159.40
2023-03-02T21:31:43.390Z,160.40
2023-03-02T21:34:15.172Z,156.10
2023-03-02T21:36:42.081Z,158.20
2023-03-02T21:39:12.932Z,148.00
2023-03-02T21:41:41.967Z,137.20
2023-03-02T21:44:10.928Z,144.80
2023-03-02T21:46:38.423Z,136.00
2023-03-02T21:49:07.853Z,133.60
2023-03-02T21:51:35.140Z,133.40
2023-03-02T21:54:01.769Z,136.10
2023-03-02T21:56:28.209Z,132.30
2023-03-02T21:59:01.841Z,132.50
2023-03-02T22:01:29.186Z,129.20
2023-03-02T22:03:59.267Z,135.10
2023-03-02T22:06:29.067Z,132.80
2023-03-02T22:09:02.088Z,141.30
2023-03-02T22:11:32.616Z,140.20
2023-03-02T22:14:09.712Z,128.90
2023-03-02T22:16:41.203Z,135.00
2023-03-02T22:19:26.315Z,138.60
2023-03-02T22:21:55.909Z,158.80
2023-03-02T22:24:34.375Z,150.30
2023-03-02T22:27:03.793Z,154.40
2023-03-02T22:29:45.205Z,159.40
2023-03-02T22:32:25.217Z,164.50
2023-03-02T22:35:08.934Z,157.90
2023-03-02T22:37:38.739Z,152.80
2023-03-02T22:40:33.146Z,153.90
2023-03-02T22:43:25.083Z,143.60
2023-03-02T22:45:53.315Z,139.90
2023-03-02T22:48:21.825Z,149.00
2023-03-02T22:50:55.408Z,144.20
2023-03-02T22:53:33.312Z,148.90
2023-03-02T22:56:15.525Z,147.70
2023-03-02T22:58:49.553Z,159.60
2023-03-02T23:01:26.556Z,146.40
2023-03-02T23:03:57.634Z,155.40
2023-03-02T23:06:28.202Z,156.80
2023-03-02T23:09:00.128Z,145.10
2023-03-02T23:11:35.223Z,138.10
2023-03-02T23:14:08.773Z,136.20
2023-03-02T23:16:35.788Z,122.10
2023-03-02T23:19:04.231Z,119.70
2023-03-02T23:21:40.508Z,118.90
2023-03-02T23:24:07.830Z,113.70
2023-03-02T23:26:34.551Z,114.90
2023-03-02T23:29:06.932Z,114.20
2023-03-02T23:31:35.711Z,104.50
2023-03-02T23:34:07.410Z,109.00
2023-03-02T23:36:39.067Z,107.60
2023-03-02T23:39:08.946Z,103.70
2023-03-02T23:41:38.394Z,99.50
2023-03-02T23:44:06.329Z,103.90
2023-03-02T23:46:35.128Z,104.40
2023-03-02T23:49:04.783Z,97.40
2023-03-02T23:51:33.546Z,87.40
2023-03-02T23:54:04.722Z,92.30
2023-03-02T23:56:31.544Z,77.60
2023-03-02T23:59:02.920Z,75.00
